createdAt,value
2022-12-18T00:00:43.997Z,-5.4
2022-12-18T00:05:26.412Z,-5.5
2022-12-18T00:10:32.822Z,-5.6
2022-12-18T00:15:39.177Z,-5.7
2022-12-18T00:20:45.801Z,-5.8
2022-12-18T00:26:16.243Z,-5.9
2022-12-18T00:30:49.653Z,-6.0
2022-12-18T00:36:06.104Z,-6.0
2022-12-18T00:41:02.484Z,-6.1
2022-12-18T00:46:18.930Z,-6.2
2022-12-18T00:51:15.271Z,-6.3
2022-12-18T00:56:21.647Z,-6.4
2022-12-18T01:01:38.295Z,-6.4
2022-12-18T01:06:45.766Z,-6.5
2022-12-18T01:11:52.019Z,-6.6
2022-12-18T01:16:59.514Z,-6.7
2022-12-18T01:22:09.506Z,-6.7
2022-12-18T01:27:15.886Z,-6.8
2022-12-18T01:32:22.284Z,-6.9
2022-12-18T01:37:28.666Z,-7.0
2022-12-18T01:42:35.087Z,-7.0
2022-12-18T01:47:41.443Z,-7.1
2022-12-18T01:52:51.582Z,-7.1
2022-12-18T01:57:57.968Z,-7.2
2022-12-18T02:03:04.572Z,-7.2
2022-12-18T02:08:10.947Z,-7.3
2022-12-18T02:13:17.503Z,-7.4
2022-12-18T02:18:23.724Z,-7.4
2022-12-18T02:23:30.175Z,-7.5
2022-12-18T02:29:20.702Z,-7.5
2022-12-18T02:33:42.896Z,-7.6
2022-12-18T02:38:39.252Z,-7.6
2022-12-18T02:44:15.780Z,-7.7
2022-12-18T02:49:23.041Z,-7.7
2022-12-18T02:53:59.252Z,-7.8
2022-12-18T02:59:40.762Z,-7.8
2022-12-18T03:04:26.333Z,-7.9
2022-12-18T03:09:32.606Z,-7.9
2022-12-18T03:14:29.536Z,-7.9
2022-12-18T03:25:16.359Z,-8.0
2022-12-18T03:29:58.740Z,-8.0
2022-12-18T03:35:05.158Z,-8.1
2022-12-18T03:40:01.716Z,-8.1
2022-12-18T03:45:07.970Z,-8.2
2022-12-18T03:50:15.071Z,-8.2
2022-12-18T03:55:31.611Z,-8.3
2022-12-18T04:01:12.629Z,-8.3
2022-12-18T04:06:19.995Z,-8.4
2022-12-18T04:12:38.576Z,-8.3
2022-12-18T04:16:32.700Z,-8.4
2022-12-18T04:26:45.714Z,-8.5
2022-12-18T04:31:52.164Z,-8.5
2022-12-18T04:36:58.478Z,-8.6
2022-12-18T04:41:54.844Z,-8.6
2022-12-18T04:47:40.266Z,-8.6
2022-12-18T04:52:42.529Z,-8.7
2022-12-18T04:57:19.151Z,-8.7
2022-12-18T05:02:35.826Z,-8.7
2022-12-18T05:07:42.146Z,-8.8
2022-12-18T05:12:37.382Z,-8.8
2022-12-18T05:17:54.842Z,-8.8
2022-12-18T05:23:01.362Z,-8.9
2022-12-18T05:28:07.787Z,-8.9
2022-12-18T05:33:14.271Z,-8.9
2022-12-18T05:38:10.825Z,-8.9
2022-12-18T05:43:31.224Z,-8.9
2022-12-18T05:48:57.642Z,-9.0
2022-12-18T05:53:40.593Z,-9.0
2022-12-18T05:59:10.486Z,-9.0
2022-12-18T06:08:59.522Z,-9.0
2022-12-18T06:14:06.030Z,-9.1
2022-12-18T06:24:19.014Z,-9.1
2022-12-18T06:29:24.308Z,-9.1
2022-12-18T06:34:45.719Z,-9.2
2022-12-18T06:40:02.262Z,-9.2
2022-12-18T06:44:34.019Z,-9.2
2022-12-18T06:49:51.568Z,-9.2
2022-12-18T06:55:00.147Z,-9.3
2022-12-18T07:00:06.762Z,-9.3
2022-12-18T07:05:13.013Z,-9.3
2022-12-18T07:10:44.690Z,-9.3
2022-12-18T07:15:25.994Z,-9.3
2022-12-18T07:20:22.244Z,-9.3
2022-12-18T07:25:38.667Z,-9.3
2022-12-18T07:30:45.230Z,-9.3
2022-12-18T07:35:51.540Z,-9.3
2022-12-18T07:40:47.974Z,-9.4
2022-12-18T07:46:04.569Z,-9.3
2022-12-18T07:51:10.773Z,-9.3
2022-12-18T07:56:31.846Z,-9.3
2022-12-18T08:01:12.674Z,-9.3
2022-12-18T08:06:29.931Z,-9.3
2022-12-18T08:11:36.325Z,-9.3
2022-12-18T08:16:32.860Z,-9.2
2022-12-18T08:21:48.094Z,-9.2
2022-12-18T08:27:27.974Z,-9.2
2022-12-18T08:32:05.717Z,-9.1
2022-12-18T08:37:25.888Z,-9.0
2022-12-18T08:42:53.375Z,-8.8
2022-12-18T08:48:00.880Z,-8.9
2022-12-18T08:53:07.136Z,-8.7
2022-12-18T08:58:13.522Z,-8.6
2022-12-18T09:03:20.185Z,-8.5
2022-12-18T09:13:46.709Z,-8.2
2022-12-18T09:18:29.158Z,-8.1
2022-12-18T09:23:45.497Z,-7.9
2022-12-18T09:29:12.007Z,-7.8
2022-12-18T09:33:59.612Z,-7.7
2022-12-18T09:39:08.453Z,-7.5
2022-12-18T09:44:02.328Z,-7.4
2022-12-18T09:49:18.854Z,-7.2
2022-12-18T09:54:25.121Z,-7.1
2022-12-18T09:59:31.498Z,-7.0
2022-12-18T10:04:38.108Z,-6.8
2022-12-18T10:09:34.240Z,-6.6
2022-12-18T10:14:50.662Z,-6.4
2022-12-18T10:27:04.972Z,-5.8
2022-12-18T10:38:39.939Z,-5.4
2022-12-18T10:43:51.081Z,-5.4
2022-12-18T10:48:52.320Z,-5.2
2022-12-18T10:53:59.726Z,-5.0
2022-12-18T10:59:30.463Z,-4.9
2022-12-18T11:04:03.033Z,-4.7
2022-12-18T11:09:13.911Z,-4.5
2022-12-18T11:14:15.456Z,-4.4
2022-12-18T11:19:21.969Z,-4.2
2022-12-18T11:24:38.279Z,-4.0
2022-12-18T11:29:34.594Z,-3.8
2022-12-18T11:34:55.935Z,-3.7
2022-12-18T11:45:41.003Z,-3.3
2022-12-18T11:50:48.507Z,-3.3
2022-12-18T11:56:11.587Z,-3.2
2022-12-18T12:01:05.510Z,-3.1
2022-12-18T12:06:12.007Z,-3.0
2022-12-18T12:16:24.778Z,-2.8
2022-12-18T12:27:57.807Z,-2.6
2022-12-18T12:33:05.838Z,-2.6
2022-12-18T12:43:20.291Z,-2.4
2022-12-18T12:48:27.797Z,-2.4
2022-12-18T12:53:54.240Z,-2.3
2022-12-18T12:59:04.746Z,-2.3
2022-12-18T13:03:37.178Z,-2.2
2022-12-18T13:08:53.558Z,-2.2
2022-12-18T13:13:59.965Z,-2.2
2022-12-18T13:19:06.473Z,-2.1
2022-12-18T13:24:02.725Z,-2.1
2022-12-18T13:29:09.119Z,-2.0
2022-12-18T13:34:39.679Z,-2.0
2022-12-18T14:25:07.615Z,-1.2
2022-12-18T14:44:50.700Z,-1.2
2022-12-18T14:49:48.239Z,-1.2
2022-12-18T14:56:58.845Z,-1.3
2022-12-18T15:04:22.754Z,-1.6
2022-12-18T15:33:31.109Z,-1.5
2022-12-18T15:34:45.947Z,-1.7
2022-12-18T15:50:02.970Z,-1.8
2022-12-18T15:51:09.005Z,-1.8
2022-12-18T15:56:40.487Z,-1.9
2022-12-18T16:03:16.088Z,-1.7
2022-12-18T16:05:22.171Z,-1.9
2022-12-18T16:05:28.076Z,-2.0
2022-12-18T16:10:35.444Z,-2.0
2022-12-18T16:15:41.881Z,-2.0
2022-12-18T16:20:54.176Z,-2.0
2022-12-18T16:41:14.168Z,-2.0
2022-12-18T16:46:20.625Z,-2.0
2022-12-18T16:51:17.510Z,-2.0
2022-12-18T16:56:29.841Z,-1.9
2022-12-18T17:04:30.564Z,-1.9
2022-12-18T17:06:46.880Z,-1.9
2022-12-18T17:17:20.338Z,-1.9
2022-12-18T17:32:18.653Z,-1.9
2022-12-18T17:37:25.712Z,-1.9
2022-12-18T17:42:31.983Z,-1.9
2022-12-18T17:47:38.520Z,-1.8
2022-12-18T17:52:45.021Z,-1.8
2022-12-18T17:58:16.338Z,-1.8
2022-12-18T18:02:59.148Z,-1.9
2022-12-18T18:13:36.687Z,-1.8
2022-12-18T18:18:17.927Z,-1.8
2022-12-18T18:23:24.543Z,-1.8
2022-12-18T18:28:30.779Z,-1.8
2022-12-18T18:33:37.261Z,-1.8
2022-12-18T18:38:48.364Z,-1.8
2022-12-18T18:43:50.508Z,-1.8
2022-12-18T18:49:55.994Z,-1.7
2022-12-18T18:55:03.601Z,-1.7
2022-12-18T18:59:49.862Z,-1.7
2022-12-18T19:04:56.235Z,-1.6
2022-12-18T19:10:03.911Z,-1.7
2022-12-18T19:15:09.200Z,-1.6
2022-12-18T19:20:15.659Z,-1.6
2022-12-18T19:30:58.921Z,-1.5
2022-12-18T19:35:34.925Z,-1.5
2022-12-18T19:40:41.332Z,-1.5
2022-12-18T19:46:07.944Z,-1.4
2022-12-18T19:51:54.266Z,-1.4
2022-12-18T19:56:00.533Z,-1.4
2022-12-18T20:01:28.246Z,-1.3
2022-12-18T20:06:14.281Z,-1.3
2022-12-18T20:11:21.821Z,-1.3
2022-12-18T20:16:48.418Z,-1.2
2022-12-18T20:21:54.911Z,-1.2
2022-12-18T20:26:55.309Z,-1.2
2022-12-18T20:31:47.696Z,-1.2
2022-12-18T20:38:26.279Z,-1.1
2022-12-18T20:41:50.407Z,-1.1
2022-12-18T20:48:39.000Z,-1.0
2022-12-18T20:52:13.241Z,-1.0
2022-12-18T20:58:55.020Z,-1.0
2022-12-18T21:03:25.048Z,-0.9
2022-12-18T21:08:44.483Z,-0.8
2022-12-18T21:13:52.499Z,-0.8
2022-12-18T21:19:23.148Z,-0.8
2022-12-18T21:24:05.391Z,-0.7
2022-12-18T21:29:11.849Z,-0.7
2022-12-18T21:34:18.241Z,-0.7
2022-12-18T21:39:44.782Z,-0.6
2022-12-18T21:44:31.024Z,-0.6
2022-12-18T21:49:37.479Z,-0.6
2022-12-18T21:54:43.866Z,-0.5
2022-12-18T21:59:40.505Z,-0.5
2022-12-18T22:04:55.961Z,-0.4
2022-12-18T22:15:08.868Z,-0.4
2022-12-18T22:20:16.173Z,-0.4
2022-12-18T22:25:12.529Z,-0.3
2022-12-18T22:30:29.073Z,-0.3
2022-12-18T22:35:35.317Z,-0.3
2022-12-18T22:40:31.771Z,-0.2
2022-12-18T22:45:48.465Z,-0.2
2022-12-18T22:50:58.513Z,-0.2
2022-12-18T22:56:25.473Z,-0.2
2022-12-18T23:01:08.191Z,-0.2
2022-12-18T23:06:14.522Z,-0.1
2022-12-18T23:11:24.929Z,-0.1
2022-12-18T23:16:27.499Z,-0.1
2022-12-18T23:21:33.706Z,-0.1
2022-12-18T23:26:40.080Z,-0.1
2022-12-18T23:31:46.676Z,0.0
2022-12-18T23:36:55.982Z,0.0
2022-12-18T23:41:59.274Z,0.0
2022-12-18T23:47:05.739Z,0.0
2022-12-18T23:52:12.093Z,0.0
2022-12-18T23:57:42.708Z,0.0
